Time;durP1;ratioP1;P1;durP2;ratioP2;P2;SDS_P1;SDS_P2;PMS_P1;PMS_P2;Temp;Humidity;BMP_temperature;BMP_pressure;BME280_temperature;BME280_humidity;BME280_pressure;Samples;Min_cycle;Max_cycle;Signal;HPM_P1;HPM_P2
2021/10/13 15:49:01;;;;;;;5.57;1.52;;;12.50;99.90;;;10.24;70.64;98429.81;5088578;27;20370;-71
2021/10/13 15:51:48;;;;;;;4.25;1.85;;;12.30;99.90;;;10.60;69.01;98423.63;5073029;28;20049;-71
2021/10/13 15:54:36;;;;;;;11.70;1.92;;;13.60;99.90;;;10.76;68.97;98427.47;5094771;28;20472;-71
2021/10/13 15:57:23;;;;;;;4.13;1.33;;;14.50;99.90;;;11.42;67.96;98424.59;5086679;28;20036;-71
2021/10/13 16:00:12;;;;;;;4.97;1.95;;;14.80;99.90;;;11.41;67.42;98433.31;5088136;28;20036;-71
2021/10/13 16:02:59;;;;;;;7.63;1.85;;;14.50;99.90;;;11.05;68.28;98425.75;5073015;28;20044;-71
2021/10/13 16:05:46;;;;;;;6.57;1.73;;;14.30;99.90;;;10.77;68.87;98420.56;5091649;28;20135;-71
2021/10/13 16:08:38;;;;;;;5.40;2.15;;;13.40;99.90;;;10.17;71.35;98424.81;5094166;28;20055;-71
2021/10/13 16:11:27;;;;;;;5.97;2.67;;;12.60;99.90;;;9.86;73.07;98422.22;5094028;28;20051;-71
2021/10/13 16:14:15;;;;;;;7.07;3.38;;;12.00;99.90;;;9.90;73.19;98419.50;5073857;28;20051;-71
2021/10/13 16:17:03;;;;;;;8.75;2.60;;;11.70;99.90;;;9.79;73.14;98422.34;5098270;28;20047;-71
2021/10/13 16:19:50;;;;;;;11.23;3.40;;;11.40;99.90;;;9.75;73.33;98433.69;4936299;28;54665;-71
2021/10/13 16:23:02;;;;;;;7.93;2.92;;;11.20;99.90;;;9.66;73.23;98433.94;5039552;27;20396;-71
2021/10/13 16:25:28;;;;;;;7.20;2.67;;;10.90;99.90;;;9.41;74.60;98438.88;5055563;28;20043;-71
2021/10/13 16:27:55;;;;;;;5.55;2.33;;;10.70;99.90;;;9.32;73.66;98437.34;5065828;28;20049;-71
2021/10/13 16:30:22;;;;;;;8.30;2.88;;;10.60;99.90;;;9.36;73.85;98445.91;5063965;28;20127;-71
2021/10/13 16:32:49;;;;;;;9.15;2.67;;;10.30;99.90;;;9.34;74.49;98453.69;5061534;28;20540;-71
2021/10/13 16:35:16;;;;;;;7.28;2.50;;;10.20;99.90;;;9.06;75.79;98460.41;5065216;28;20054;-71
2021/10/13 16:37:42;;;;;;;7.25;2.42;;;10.00;99.90;;;8.97;75.78;98470.09;5065349;28;20056;-71
2021/10/13 16:40:10;;;;;;;7.60;2.92;;;9.90;99.90;;;8.78;76.87;98472.22;5071745;28;20145;-71
2021/10/13 16:42:38;;;;;;;10.73;3.22;;;9.70;99.90;;;8.66;77.43;98475.03;5035914;28;20143;-70
2021/10/13 16:45:06;;;;;;;9.45;3.42;;;9.60;99.90;;;8.51;78.32;98467.63;5063824;28;20131;-70
2021/10/13 16:47:33;;;;;;;6.47;2.85;;;9.40;99.90;;;8.53;77.86;98474.47;5057858;28;20125;-68
2021/10/13 16:50:01;;;;;;;8.10;2.95;;;9.30;99.90;;;8.25;77.91;98463.75;5063845;28;20127;-72
2021/10/13 16:52:28;;;;;;;7.88;4.10;;;9.20;99.90;;;8.19;78.40;98471.66;5063527;28;20044;-71
2021/10/13 16:54:55;;;;;;;13.48;6.38;;;9.00;99.90;;;7.97;80.52;98474.59;5062910;28;20571;-72
2021/10/13 16:57:22;;;;;;;31.88;21.65;;;8.90;99.90;;;8.02;79.88;98474.53;5060925;28;20059;-72
2021/10/13 16:59:49;;;;;;;15.45;6.55;;;8.80;99.90;;;7.84;80.44;98480.84;5062662;28;20143;-72
2021/10/13 17:02:16;;;;;;;14.35;7.75;;;8.70;99.90;;;7.61;81.44;98482.97;5064679;28;20128;-72
2021/10/13 17:04:43;;;;;;;11.88;5.18;;;8.60;99.90;;;7.58;81.30;98493.38;5062836;28;20072;-72
2021/10/13 17:07:11;;;;;;;13.95;5.70;;;8.50;99.90;;;7.59;81.55;98493.34;5063977;28;20069;-72
2021/10/13 17:09:38;;;;;;;14.02;5.35;;;8.40;99.90;;;7.52;81.90;98486.56;5063807;28;20051;-72
2021/10/13 17:12:05;;;;;;;15.65;7.13;;;8.30;99.90;;;7.57;81.19;98484.75;5063410;28;20102;-72
2021/10/13 17:14:33;;;;;;;13.80;6.60;;;8.30;99.90;;;7.28;82.41;98493.81;5062051;28;20132;-72
2021/10/13 17:17:01;;;;;;;12.32;5.68;;;8.10;99.90;;;7.29;82.09;98489.50;5062891;28;20049;-71
2021/10/13 17:19:28;;;;;;;13.70;5.20;;;8.10;99.90;;;7.27;83.25;98486.94;5064584;28;20094;-72
2021/10/13 17:21:55;;;;;;;14.02;5.47;;;8.10;99.90;;;7.23;82.80;98495.63;5058480;28;20072;-72
2021/10/13 17:24:22;;;;;;;11.13;5.22;;;8.10;99.90;;;7.08;83.33;98495.84;5063462;28;20159;-72
2021/10/13 17:26:49;;;;;;;12.35;4.43;;;8.00;99.90;;;7.17;83.79;98502.59;5063306;28;20076;-72
2021/10/13 17:29:16;;;;;;;11.77;5.40;;;8.00;99.90;;;7.01;84.53;98501.97;5064118;28;20091;-72
2021/10/13 17:31:42;;;;;;;11.77;4.80;;;8.00;99.90;;;7.11;84.01;98506.09;5046398;28;20080;-72
2021/10/13 17:34:09;;;;;;;15.18;6.00;;;8.00;99.90;;;7.00;84.30;98508.84;5052104;28;20508;-72
2021/10/13 17:36:36;;;;;;;15.60;6.22;;;7.90;99.90;;;6.84;85.46;98517.63;5045005;28;20144;-72
2021/10/13 17:39:04;;;;;;;11.90;4.55;;;7.90;99.90;;;6.98;84.37;98517.47;5048146;28;20079;-72
2021/10/13 17:41:32;;;;;;;13.48;5.80;;;7.90;99.90;;;6.99;85.67;98521.78;5050738;28;20140;-72
2021/10/13 17:44:01;;;;;;;11.90;4.78;;;7.90;99.90;;;7.09;84.64;98520.75;5051477;28;20045;-72
2021/10/13 17:46:29;;;;;;;10.77;3.85;;;8.00;99.90;;;7.27;83.45;98528.25;5049864;28;20057;-72
2021/10/13 17:48:56;;;;;;;11.18;5.03;;;8.00;99.90;;;7.24;83.57;98524.88;5045133;28;20072;-72
2021/10/13 17:51:30;;;;;;;15.10;6.07;;;8.10;99.90;;;7.00;84.53;98526.91;5043003;28;20072;-72
2021/10/13 17:53:57;;;;;;;11.45;4.82;;;8.00;99.90;;;7.04;84.35;98531.16;5043748;28;20056;-72
2021/10/13 17:56:24;;;;;;;10.27;4.45;;;8.00;99.90;;;7.10;84.91;98535.38;5050333;28;20081;-72
2021/10/13 17:58:51;;;;;;;10.75;3.95;;;8.00;99.90;;;7.03;84.93;98534.63;5049750;28;20120;-72
2021/10/13 18:01:18;;;;;;;12.88;4.72;;;8.00;99.90;;;7.23;84.17;98538.63;5050974;28;20072;-72
2021/10/13 18:03:45;;;;;;;8.70;4.43;;;8.10;99.90;;;7.09;85.22;98547.44;5047859;28;20450;-72
2021/10/13 18:06:12;;;;;;;8.98;3.58;;;8.00;99.90;;;7.29;84.23;98548.91;5048839;28;20131;-72
2021/10/13 18:08:40;;;;;;;16.00;8.73;;;8.10;99.90;;;7.35;84.18;98542.81;5049775;28;20083;-72
2021/10/13 18:11:09;;;;;;;8.10;3.83;;;8.20;99.90;;;7.26;84.53;98543.78;5047550;28;20107;-72
2021/10/13 18:13:36;;;;;;;10.60;3.60;;;8.10;99.90;;;7.09;85.72;98554.31;5048352;28;20103;-72
2021/10/13 18:16:04;;;;;;;7.13;3.17;;;8.10;99.90;;;7.29;85.14;98551.47;5042896;28;20100;-72
2021/10/13 18:18:31;;;;;;;9.30;2.78;;;8.20;99.90;;;7.32;85.28;98546.25;5035810;28;20075;-71
2021/10/13 18:20:58;;;;;;;9.45;3.10;;;8.20;99.90;;;7.32;85.36;98544.56;5050013;28;20132;-72
2021/10/13 18:23:25;;;;;;;8.18;3.85;;;8.30;99.90;;;7.31;85.88;98552.31;5047369;28;20087;-72
2021/10/13 18:25:51;;;;;;;8.88;3.38;;;8.20;99.90;;;7.41;85.95;98551.31;5050311;28;20128;-72
2021/10/13 18:28:18;;;;;;;8.10;3.75;;;8.30;99.90;;;7.35;86.25;98550.56;5046763;28;20052;-72
2021/10/13 18:30:48;;;;;;;8.70;3.40;;;8.30;99.90;;;7.34;86.41;98541.94;5045558;28;20129;-72
2021/10/13 18:33:15;;;;;;;8.10;3.60;;;8.30;99.90;;;7.29;86.58;98539.41;5045817;28;20484;-74
2021/10/13 18:35:42;;;;;;;8.30;3.08;;;8.30;99.90;;;7.24;86.28;98537.78;5045767;28;20048;-72
2021/10/13 18:38:09;;;;;;;9.88;4.38;;;8.30;99.90;;;7.25;86.72;98535.19;5049185;28;20124;-72
2021/10/13 18:40:36;;;;;;;9.95;4.50;;;8.30;99.90;;;7.26;86.74;98536.88;5047356;28;20515;-72
2021/10/13 18:43:04;;;;;;;9.90;3.90;;;8.20;99.90;;;7.12;86.79;98543.97;5042651;28;20486;-72
2021/10/13 18:45:31;;;;;;;7.18;2.88;;;8.10;99.90;;;7.25;86.48;98547.22;5045393;28;20613;-72
2021/10/13 18:47:58;;;;;;;5.85;2.65;;;8.10;99.90;;;7.32;86.34;98548.84;5046943;28;20091;-72
2021/10/13 18:50:25;;;;;;;6.88;3.00;;;8.10;99.90;;;7.29;86.65;98552.31;5050352;28;20053;-72
2021/10/13 18:52:52;;;;;;;7.65;3.78;;;8.10;99.90;;;7.06;87.41;98562.13;5039159;28;20128;-72
2021/10/13 18:55:20;;;;;;;5.47;2.20;;;8.10;99.90;;;7.15;87.45;98564.56;5029847;28;20510;-72
2021/10/13 18:57:47;;;;;;;6.18;2.53;;;8.00;99.90;;;7.13;87.44;98559.44;5032293;28;20132;-72
2021/10/13 19:00:15;;;;;;;7.88;3.05;;;8.10;99.90;;;7.13;87.85;98566.31;5034256;28;20104;-72
2021/10/13 19:02:43;;;;;;;5.90;2.55;;;8.10;99.90;;;7.09;88.25;98560.38;5036001;28;20552;-72
2021/10/13 19:05:10;;;;;;;7.68;2.53;;;8.10;99.90;;;7.15;88.26;98566.31;5059146;28;20105;-72
2021/10/13 19:07:37;;;;;;;6.53;2.63;;;8.10;99.90;;;7.23;87.03;98572.22;5047737;28;20087;-72
2021/10/13 19:10:06;;;;;;;6.43;2.50;;;8.10;99.90;;;7.28;87.08;98573.03;5046247;28;20088;-72
2021/10/13 19:12:35;;;;;;;6.95;1.88;;;8.10;99.90;;;7.14;87.98;98578.38;5032351;28;20071;-72
2021/10/13 19:15:04;;;;;;;4.53;2.40;;;8.10;99.90;;;7.13;88.46;98581.81;5033292;28;20077;-72
2021/10/13 19:17:31;;;;;;;9.02;2.55;;;8.10;99.90;;;7.10;88.95;98580.13;5038730;28;20114;-72
2021/10/13 19:19:59;;;;;;;7.63;2.35;;;8.00;99.90;;;7.11;88.92;98581.81;5031213;28;20081;-72
2021/10/13 19:22:25;;;;;;;4.55;2.03;;;8.10;99.90;;;7.08;89.16;98578.44;5032807;28;20046;-72
2021/10/13 19:24:52;;;;;;;3.95;1.80;;;8.00;99.90;;;7.15;88.94;98577.47;5030930;28;20176;-72
2021/10/13 19:27:24;;;;;;;6.15;2.42;;;8.00;99.90;;;6.96;89.68;98568.28;5030364;28;20053;-72
2021/10/13 19:29:51;;;;;;;4.40;2.05;;;8.10;99.90;;;7.00;89.45;98568.22;5040287;28;20055;-72
2021/10/13 19:32:18;;;;;;;5.72;2.33;;;8.00;99.90;;;6.84;90.35;98571.84;5033313;28;20046;-72
2021/10/13 19:34:45;;;;;;;17.67;8.20;;;7.90;99.90;;;6.75;90.71;98579.69;5031217;28;20534;-72
2021/10/13 19:37:12;;;;;;;14.52;8.10;;;7.80;99.90;;;6.58;91.59;98572.13;5041623;28;20084;-72
2021/10/13 19:39:39;;;;;;;13.63;7.75;;;7.80;99.90;;;6.62;90.92;98572.09;5044472;28;20212;-72
2021/10/13 19:42:06;;;;;;;17.27;9.80;;;7.70;99.90;;;6.55;91.38;98574.75;5042307;28;20049;-72
2021/10/13 19:44:33;;;;;;;22.17;11.90;;;7.60;99.90;;;6.64;90.90;98574.66;5029942;28;20045;-72
2021/10/13 19:47:00;;;;;;;19.90;11.48;;;7.50;99.90;;;6.71;89.74;98573.72;5036584;28;20052;-72
2021/10/13 19:49:28;;;;;;;24.20;13.73;;;7.50;99.90;;;6.63;89.86;98584.09;5037171;28;20380;-72
2021/10/13 19:51:56;;;;;;;23.23;11.63;;;7.40;99.90;;;6.67;88.89;98584.94;5031456;28;20087;-72
2021/10/13 19:54:23;;;;;;;20.50;10.90;;;7.40;99.90;;;6.67;88.43;98596.09;5044835;28;20510;-72
2021/10/13 19:56:52;;;;;;;15.73;6.72;;;7.30;99.90;;;6.45;87.92;98594.63;5051249;28;20132;-72
2021/10/13 19:59:19;;;;;;;13.48;5.95;;;7.20;99.90;;;6.24;89.75;98596.53;5044357;28;20132;-72
2021/10/13 20:01:46;;;;;;;19.52;10.48;;;7.20;99.90;;;6.05;91.57;98601.00;5041959;28;20478;-72
2021/10/13 20:04:14;;;;;;;16.13;10.88;;;7.10;99.90;;;6.04;91.12;98604.44;5044419;28;20076;-72
2021/10/13 20:06:41;;;;;;;21.10;13.90;;;7.00;99.90;;;5.91;92.17;98607.94;5040857;28;20045;-72
2021/10/13 20:09:08;;;;;;;20.75;13.38;;;6.90;99.90;;;5.69;93.83;98612.38;5041243;28;20088;-72
2021/10/13 20:11:36;;;;;;;25.05;13.45;;;6.90;99.90;;;5.62;94.27;98613.28;5033105;28;20046;-72
2021/10/13 20:14:03;;;;;;;23.33;12.27;;;6.90;99.90;;;5.57;94.77;98612.47;5042584;28;20050;-72
2021/10/13 20:16:30;;;;;;;25.05;13.73;;;6.90;99.90;;;5.70;94.54;98614.06;5037159;28;20049;-73
2021/10/13 20:18:57;;;;;;;20.15;13.77;;;6.80;99.90;;;5.71;94.56;98620.09;5042846;28;20519;-72
2021/10/13 20:21:23;;;;;;;26.65;15.43;;;6.80;99.90;;;5.65;94.84;98620.97;5035490;28;20049;-72
2021/10/13 20:23:50;;;;;;;18.63;12.50;;;6.70;99.90;;;5.83;94.05;98626.00;5029749;28;20053;-72
2021/10/13 20:26:17;;;;;;;21.00;11.93;;;6.70;99.90;;;5.83;93.59;98620.00;5031424;28;20394;-72
2021/10/13 20:28:44;;;;;;;21.35;11.63;;;6.70;99.90;;;5.86;93.20;98619.97;5043194;28;20045;-72
2021/10/13 20:31:12;;;;;;;22.80;11.68;;;6.70;99.90;;;5.86;93.36;98619.97;5045492;28;20238;-72
2021/10/13 20:33:40;;;;;;;20.65;10.35;;;6.80;99.90;;;5.74;94.71;98623.50;5033120;28;20049;-72
2021/10/13 20:36:07;;;;;;;19.10;10.07;;;6.80;99.90;;;5.92;93.87;98630.25;5042017;28;20096;-72
2021/10/13 20:38:34;;;;;;;15.90;9.43;;;6.80;99.90;;;5.98;93.48;98627.69;5042052;28;20464;-72
2021/10/13 20:41:03;;;;;;;19.38;11.68;;;6.90;99.90;;;5.80;94.17;98627.78;5039470;28;20049;-72
2021/10/13 20:43:30;;;;;;;22.85;13.50;;;6.90;99.90;;;5.70;94.95;98619.22;5038882;28;20041;-72
2021/10/13 20:45:57;;;;;;;17.45;10.30;;;6.90;99.90;;;5.96;93.59;98619.09;5039198;28;20438;-72
2021/10/13 20:48:23;;;;;;;30.23;15.10;;;6.90;99.90;;;5.70;94.39;98621.81;5037524;28;20045;-71
2021/10/13 20:50:50;;;;;;;20.15;12.07;;;6.90;99.90;;;5.77;93.86;98625.19;5034543;28;20470;-72
2021/10/13 20:53:17;;;;;;;22.33;10.88;;;6.90;99.90;;;5.87;93.48;98611.41;5035940;28;20081;-72
2021/10/13 20:55:45;;;;;;;21.73;12.38;;;6.90;99.90;;;5.92;92.96;98616.53;5035520;28;20044;-72
2021/10/13 20:58:12;;;;;;;21.00;11.93;;;6.90;99.90;;;5.83;93.15;98623.44;5035176;28;20052;-72
2021/10/13 21:00:41;;;;;;;21.40;12.07;;;6.90;99.90;;;5.86;92.86;98619.97;5037354;28;20140;-72
2021/10/13 21:03:08;;;;;;;12.95;9.07;;;6.90;99.90;;;6.05;91.70;98613.88;5033003;28;20045;-71
2021/10/13 21:05:36;;;;;;;22.90;13.20;;;6.90;99.90;;;5.77;92.68;98604.59;5035168;28;20087;-72
2021/10/13 21:08:05;;;;;;;15.23;9.05;;;7.00;99.90;;;5.94;92.08;98612.22;5034249;28;20041;-72
2021/10/13 21:10:31;;;;;;;16.40;9.23;;;7.00;99.90;;;5.73;93.31;98601.19;5048738;28;20136;-72
2021/10/13 21:12:59;;;;;;;16.90;9.70;;;6.90;99.90;;;5.72;93.35;98603.78;5048839;28;20055;-72
2021/10/13 21:15:26;;;;;;;17.08;11.05;;;6.90;99.90;;;5.80;92.86;98607.16;5049203;28;20137;-72
2021/10/13 21:17:53;;;;;;;18.45;10.20;;;6.80;99.90;;;5.72;93.11;98612.34;5035114;28;20139;-71
2021/10/13 21:20:21;;;;;;;16.40;9.90;;;6.80;99.90;;;5.75;93.21;98604.63;5040802;28;20416;-72
2021/10/13 21:22:48;;;;;;;15.48;8.65;;;6.80;99.90;;;5.85;92.33;98601.09;5051057;28;20501;-72
2021/10/13 21:25:15;;;;;;;13.02;7.97;;;6.80;99.90;;;5.96;91.54;98608.78;5048254;28;20076;-72
2021/10/13 21:27:43;;;;;;;14.63;7.43;;;6.90;99.90;;;6.15;90.71;98596.59;5049646;28;20037;-72
2021/10/13 21:30:11;;;;;;;16.10;7.50;;;6.90;99.90;;;6.05;90.64;98605.28;5047768;28;20053;-72
2021/10/13 21:32:38;;;;;;;10.32;6.20;;;7.00;99.90;;;5.90;90.76;98603.63;5043491;28;20056;-72
2021/10/13 21:35:05;;;;;;;12.93;6.82;;;7.00;99.90;;;5.84;90.81;98604.56;5047458;28;20322;-72
2021/10/13 21:37:32;;;;;;;18.15;9.65;;;7.00;99.90;;;5.90;91.11;98613.09;5048377;28;20056;-72
2021/10/13 21:39:59;;;;;;;13.40;7.57;;;6.90;99.90;;;5.72;91.03;98608.94;5049510;28;20286;-72
2021/10/13 21:42:26;;;;;;;18.02;9.48;;;6.90;99.90;;;5.80;90.88;98620.91;5043120;28;20040;-72
2021/10/13 21:44:53;;;;;;;13.65;8.43;;;6.80;99.90;;;5.69;92.01;98617.53;5045099;28;20494;-72
2021/10/13 21:47:21;;;;;;;11.82;7.88;;;6.80;99.90;;;5.65;91.96;98613.25;5047563;28;20182;-72
2021/10/13 21:49:48;;;;;;;14.63;9.27;;;6.70;99.90;;;5.68;91.68;98609.81;5048136;28;20037;-72
2021/10/13 21:52:19;;;;;;;13.25;7.75;;;6.80;99.90;;;5.85;91.01;98613.97;5047994;28;20041;-72
2021/10/13 21:54:46;;;;;;;12.40;6.80;;;6.70;99.90;;;5.69;91.13;98612.38;5044273;28;20042;-72
2021/10/13 21:57:13;;;;;;;13.95;7.07;;;6.70;99.90;;;5.77;91.19;98620.03;5046328;28;20502;-72
2021/10/13 21:59:40;;;;;;;12.98;7.57;;;6.70;99.90;;;5.71;90.54;98618.38;5038710;28;20586;-72
2021/10/13 22:02:07;;;;;;;10.88;7.88;;;6.70;99.90;;;5.76;90.36;98615.78;5061912;28;20076;-72
2021/10/13 22:04:34;;;;;;;14.20;7.22;;;6.60;99.90;;;5.69;90.47;98607.22;5044402;28;20038;-72
2021/10/13 22:07:01;;;;;;;13.15;8.15;;;6.60;99.90;;;5.50;91.16;98601.34;5046260;28;20138;-72
2021/10/13 22:09:28;;;;;;;11.05;6.93;;;6.50;99.90;;;5.53;90.38;98605.63;5046465;28;20076;-72
2021/10/13 22:11:55;;;;;;;12.15;6.85;;;6.50;99.90;;;5.51;90.15;98610.75;5046603;28;20095;-72
2021/10/13 22:14:22;;;;;;;12.90;7.88;;;6.40;99.90;;;5.61;90.17;98611.56;5046071;28;20045;-71
2021/10/13 22:16:49;;;;;;;16.50;9.05;;;6.40;99.90;;;5.42;91.66;98609.09;5041735;28;20053;-72
2021/10/13 22:19:16;;;;;;;14.10;8.43;;;6.40;99.90;;;5.41;91.45;98606.53;5041139;28;20545;-72
2021/10/13 22:21:43;;;;;;;25.23;13.77;;;6.40;99.90;;;5.22;92.79;98595.47;5040653;28;20076;-72
2021/10/13 22:24:11;;;;;;;23.88;12.80;;;6.30;99.90;;;5.10;93.47;98605.81;5040089;28;20124;-72
2021/10/13 22:26:39;;;;;;;25.13;13.57;;;6.30;99.90;;;4.98;94.30;98596.44;5033769;28;20339;-72
2021/10/13 22:29:06;;;;;;;20.33;11.07;;;6.30;99.90;;;5.04;93.66;98604.16;5048537;28;20081;-72
2021/10/13 22:31:33;;;;;;;17.17;10.38;;;6.20;99.90;;;5.29;92.54;98606.59;5050107;28;20049;-72
2021/10/13 22:34:01;;;;;;;22.98;12.50;;;6.20;99.90;;;5.37;91.63;98602.28;5044641;28;20080;-72
2021/10/13 22:36:29;;;;;;;20.67;11.25;;;6.20;99.90;;;5.43;90.75;98599.66;5041910;28;20056;-71
2021/10/13 22:38:57;;;;;;;22.83;11.88;;;6.20;99.90;;;5.45;90.23;98587.63;5037552;28;20057;-72
2021/10/13 22:41:23;;;;;;;21.85;10.75;;;6.20;99.90;;;5.27;90.21;98595.44;5033387;28;20080;-72
2021/10/13 22:43:50;;;;;;;16.27;9.00;;;6.10;99.90;;;5.32;89.49;98597.16;5042993;28;20126;-71
2021/10/13 22:46:17;;;;;;;18.80;10.25;;;6.10;99.90;;;5.17;89.64;98598.06;5050351;28;20188;-72
2021/10/13 22:48:45;;;;;;;15.55;8.55;;;6.00;99.90;;;5.18;89.07;98597.22;5037667;28;20490;-71
2021/10/13 22:51:12;;;;;;;20.73;11.23;;;6.00;99.90;;;5.02;91.37;98600.72;5033512;28;20120;-72
2021/10/13 22:53:44;;;;;;;20.50;11.40;;;6.00;99.90;;;4.91;92.38;98590.47;5032239;28;20073;-71
2021/10/13 22:56:11;;;;;;;14.45;8.95;;;5.90;99.90;;;4.79;92.32;98588.78;5047371;28;20107;-71
2021/10/13 22:58:38;;;;;;;16.17;9.55;;;5.90;99.90;;;4.82;92.61;98596.50;5034763;28;20177;-71
2021/10/13 23:01:05;;;;;;;12.73;8.00;;;5.80;99.90;;;4.84;92.26;98598.22;5039106;28;20080;-71
2021/10/13 23:03:32;;;;;;;17.45;8.88;;;5.80;99.90;;;4.54;93.51;98592.31;5033828;28;20176;-71
2021/10/13 23:05:59;;;;;;;15.98;9.38;;;5.70;99.90;;;4.50;94.18;98601.72;5035456;28;20045;-71
2021/10/13 23:08:26;;;;;;;13.82;8.80;;;5.70;99.90;;;4.50;93.87;98591.44;5032828;28;20041;-72
2021/10/13 23:10:53;;;;;;;16.58;8.05;;;5.60;99.90;;;4.58;93.48;98601.69;5045966;28;20073;-71
2021/10/13 23:13:20;;;;;;;10.27;6.32;;;5.60;99.90;;;4.67;93.07;98598.25;5041531;28;20139;-73
2021/10/13 23:15:47;;;;;;;11.80;6.50;;;5.60;99.90;;;4.74;92.41;98602.50;5044988;28;20053;-71
2021/10/13 23:18:14;;;;;;;10.05;6.28;;;5.60;99.90;;;4.79;91.92;98601.66;5042947;28;20048;-71
2021/10/13 23:20:41;;;;;;;13.98;8.65;;;5.70;99.90;;;4.68;92.44;98595.69;5047202;28;20084;-71
2021/10/13 23:23:09;;;;;;;12.45;7.25;;;5.70;99.90;;;4.73;92.15;98596.53;5047498;28;20128;-71
2021/10/13 23:25:36;;;;;;;12.60;7.60;;;5.70;99.90;;;4.72;91.97;98599.09;5041546;28;20064;-72
2021/10/13 23:28:04;;;;;;;16.40;9.13;;;5.60;99.90;;;4.67;92.51;98601.66;5041686;28;20065;-72
2021/10/13 23:30:31;;;;;;;13.05;7.90;;;5.60;99.90;;;4.70;91.02;98599.13;5036512;28;20077;-71
2021/10/13 23:33:00;;;;;;;11.80;7.07;;;5.60;99.90;;;4.80;90.73;98590.50;5041696;28;20049;-71
2021/10/13 23:35:27;;;;;;;11.25;6.82;;;5.70;99.90;;;4.89;90.01;98597.31;5045055;28;20170;-71
2021/10/13 23:37:54;;;;;;;11.13;6.53;;;5.80;99.90;;;4.93;89.55;98601.59;5035357;28;20220;-71
2021/10/13 23:40:21;;;;;;;13.32;6.55;;;5.80;99.90;;;5.00;88.96;98600.72;5044424;28;20059;-72
2021/10/13 23:42:48;;;;;;;14.10;7.13;;;5.80;99.90;;;4.87;89.08;98596.47;5037435;28;20132;-71
2021/10/13 23:45:15;;;;;;;13.45;6.75;;;5.90;99.90;;;4.97;88.75;98603.31;5046768;28;20140;-71
2021/10/13 23:47:42;;;;;;;13.80;7.72;;;5.80;99.90;;;4.73;89.57;98606.81;5042526;28;20370;-71
2021/10/13 23:50:09;;;;;;;12.52;7.05;;;5.80;99.90;;;4.85;89.85;98605.06;5036147;28;20124;-72
2021/10/13 23:52:37;;;;;;;12.07;7.43;;;5.80;99.90;;;4.80;89.69;98603.34;5032590;28;20124;-71
2021/10/13 23:55:06;;;;;;;10.63;6.20;;;5.80;99.90;;;4.87;88.88;98598.19;5037945;28;20088;-71
2021/10/13 23:57:33;;;;;;;13.95;9.40;;;5.70;99.90;;;4.60;91.03;98600.81;5045055;28;20438;-71
